createdAt,value
2023-05-13T00:00:39.352Z,100.00
2023-05-13T00:03:07.717Z,100.00
2023-05-13T00:05:36.330Z,100.00
2023-05-13T00:08:07.442Z,100.00
2023-05-13T00:10:36.927Z,100.00
2023-05-13T00:13:04.969Z,100.00
2023-05-13T00:15:33.334Z,100.00
2023-05-13T00:18:01.591Z,100.00
2023-05-13T00:20:29.764Z,100.00
2023-05-13T00:22:57.631Z,100.00
2023-05-13T00:25:27.756Z,100.00
2023-05-13T00:27:56.050Z,100.00
2023-05-13T00:30:24.299Z,100.00
2023-05-13T00:32:52.404Z,100.00
2023-05-13T00:35:20.539Z,100.00
2023-05-13T00:37:48.413Z,100.00
2023-05-13T00:40:22.303Z,100.00
2023-05-13T00:42:51.138Z,100.00
2023-05-13T00:45:19.408Z,100.00
2023-05-13T00:47:48.645Z,100.00
2023-05-13T00:50:16.758Z,100.00
2023-05-13T00:52:45.169Z,100.00
2023-05-13T00:55:13.420Z,100.00
2023-05-13T00:57:41.371Z,100.00
2023-05-13T01:00:10.947Z,100.00
2023-05-13T01:02:53.906Z,100.00
2023-05-13T01:05:52.280Z,100.00
2023-05-13T01:08:57.271Z,100.00
2023-05-13T01:11:30.366Z,100.00
2023-05-13T01:14:12.462Z,100.00
2023-05-13T01:17:17.663Z,100.00
2023-05-13T01:19:55.481Z,100.00
2023-05-13T01:22:23.414Z,100.00
2023-05-13T01:24:51.588Z,100.00
2023-05-13T01:27:21.617Z,100.00
2023-05-13T01:29:50.476Z,100.00
2023-05-13T01:32:24.789Z,100.00
2023-05-13T01:34:53.971Z,100.00
2023-05-13T01:37:23.081Z,100.00
2023-05-13T01:39:51.969Z,100.00
2023-05-13T01:42:20.738Z,100.00
2023-05-13T01:44:48.933Z,100.00
2023-05-13T01:47:17.308Z,100.00
2023-05-13T01:49:45.282Z,100.00
2023-05-13T01:52:13.424Z,100.00
2023-05-13T01:54:42.044Z,100.00
2023-05-13T01:57:14.059Z,100.00
2023-05-13T01:59:42.337Z,100.00
2023-05-13T02:02:10.608Z,100.00
2023-05-13T02:04:38.611Z,100.00
2023-05-13T02:07:07.075Z,100.00
2023-05-13T02:09:35.878Z,100.00
2023-05-13T02:12:07.332Z,100.00
2023-05-13T02:14:35.316Z,100.00
2023-05-13T02:17:03.825Z,100.00
2023-05-13T02:19:32.069Z,100.00
2023-05-13T02:22:00.825Z,100.00
2023-05-13T02:24:31.417Z,100.00
2023-05-13T02:27:00.017Z,100.00
2023-05-13T02:29:28.154Z,100.00
2023-05-13T02:31:56.675Z,100.00
2023-05-13T02:34:25.466Z,100.00
2023-05-13T02:36:54.788Z,100.00
2023-05-13T02:39:22.974Z,100.00
2023-05-13T02:41:50.959Z,100.00
2023-05-13T02:44:19.661Z,100.00
2023-05-13T02:46:47.818Z,100.00
2023-05-13T02:49:16.417Z,100.00
2023-05-13T02:51:44.453Z,100.00
2023-05-13T02:54:12.494Z,100.00
2023-05-13T02:56:41.209Z,100.00
2023-05-13T02:59:09.774Z,100.00
2023-05-13T03:01:38.663Z,100.00
2023-05-13T03:04:07.259Z,100.00
2023-05-13T03:06:35.212Z,100.00
2023-05-13T03:09:03.743Z,100.00
2023-05-13T03:11:31.939Z,100.00
2023-05-13T03:14:00.445Z,100.00
2023-05-13T03:16:47.164Z,100.00
2023-05-13T03:19:16.246Z,100.00
2023-05-13T03:21:45.220Z,100.00
2023-05-13T03:24:16.331Z,100.00
2023-05-13T03:26:44.537Z,100.00
2023-05-13T03:29:12.601Z,100.00
2023-05-13T03:31:41.085Z,100.00
2023-05-13T03:34:09.259Z,100.00
2023-05-13T03:36:37.925Z,100.00
2023-05-13T03:39:06.803Z,100.00
2023-05-13T03:41:35.519Z,100.00
2023-05-13T03:44:04.183Z,100.00
2023-05-13T03:46:34.200Z,100.00
2023-05-13T03:49:02.330Z,100.00
2023-05-13T03:51:34.112Z,100.00
2023-05-13T03:54:03.618Z,100.00
2023-05-13T03:56:31.529Z,100.00
2023-05-13T03:59:00.732Z,100.00
2023-05-13T04:01:29.822Z,100.00
2023-05-13T04:03:57.707Z,100.00
2023-05-13T04:06:25.635Z,100.00
2023-05-13T04:08:53.777Z,100.00
2023-05-13T04:11:21.928Z,100.00
2023-05-13T04:13:50.013Z,100.00
2023-05-13T04:16:18.214Z,100.00
2023-05-13T04:18:46.489Z,100.00
2023-05-13T04:21:14.464Z,100.00
2023-05-13T04:23:42.507Z,100.00
2023-05-13T04:26:11.384Z,100.00
2023-05-13T04:28:39.723Z,100.00
2023-05-13T04:31:08.061Z,100.00
2023-05-13T04:33:37.631Z,100.00
2023-05-13T04:36:06.923Z,100.00
2023-05-13T04:38:35.847Z,100.00
2023-05-13T04:41:05.179Z,100.00
2023-05-13T04:43:41.100Z,100.00
2023-05-13T04:46:09.178Z,100.00
2023-05-13T04:48:38.125Z,100.00
2023-05-13T04:51:06.761Z,100.00
2023-05-13T04:53:35.456Z,100.00
2023-05-13T04:56:06.864Z,100.00
2023-05-13T04:58:35.527Z,100.00
2023-05-13T05:01:03.663Z,100.00
2023-05-13T05:03:34.326Z,100.00
2023-05-13T05:06:02.674Z,100.00
2023-05-13T05:08:31.482Z,100.00
2023-05-13T05:11:01.802Z,100.00
2023-05-13T05:13:32.294Z,100.00
2023-05-13T05:16:00.535Z,100.00
2023-05-13T05:18:28.896Z,100.00
2023-05-13T05:20:57.029Z,100.00
2023-05-13T05:23:25.215Z,100.00
2023-05-13T05:26:04.142Z,100.00
2023-05-13T05:28:40.221Z,100.00
2023-05-13T05:31:09.897Z,100.00
2023-05-13T05:33:39.339Z,100.00
2023-05-13T05:36:08.365Z,100.00
2023-05-13T05:38:36.655Z,100.00
2023-05-13T05:41:04.969Z,100.00
2023-05-13T05:43:32.909Z,100.00
2023-05-13T05:46:00.742Z,100.00
2023-05-13T05:48:28.919Z,100.00
2023-05-13T05:50:57.497Z,100.00
2023-05-13T05:53:34.023Z,100.00
2023-05-13T05:56:03.942Z,100.00
2023-05-13T05:58:32.897Z,100.00
2023-05-13T06:01:01.430Z,100.00
2023-05-13T06:03:29.695Z,100.00
2023-05-13T06:05:57.843Z,100.00
2023-05-13T06:08:30.149Z,100.00
2023-05-13T06:10:59.152Z,100.00
2023-05-13T06:13:27.524Z,100.00
2023-05-13T06:15:56.517Z,91.56
2023-05-13T06:18:27.554Z,88.71
2023-05-13T06:20:55.907Z,88.01
2023-05-13T06:23:23.832Z,88.05
2023-05-13T06:25:53.046Z,84.98
2023-05-13T06:28:20.936Z,84.92
2023-05-13T06:30:51.955Z,81.45
2023-05-13T06:33:20.279Z,76.85
2023-05-13T06:35:50.566Z,75.80
2023-05-13T06:38:21.455Z,75.19
2023-05-13T06:40:51.449Z,71.05
2023-05-13T06:43:21.994Z,72.96
2023-05-13T06:45:57.294Z,71.35
2023-05-13T06:48:27.141Z,69.68
2023-05-13T06:50:55.175Z,69.70
2023-05-13T06:53:23.545Z,69.00
2023-05-13T06:55:51.762Z,67.85
2023-05-13T06:58:20.338Z,67.92
2023-05-13T07:00:48.273Z,67.29
2023-05-13T07:03:17.844Z,67.73
2023-05-13T07:05:46.362Z,69.11
2023-05-13T07:08:18.036Z,68.81
2023-05-13T07:10:46.313Z,64.86
2023-05-13T07:13:14.490Z,65.84
2023-05-13T07:15:43.004Z,66.73
2023-05-13T07:18:11.222Z,65.64
2023-05-13T07:20:39.212Z,67.66
2023-05-13T07:23:07.595Z,66.91
2023-05-13T07:25:35.822Z,69.27
2023-05-13T07:28:04.554Z,67.59
2023-05-13T07:30:32.564Z,66.84
2023-05-13T07:33:01.654Z,65.81
2023-05-13T07:35:29.823Z,67.89
2023-05-13T07:37:57.859Z,67.50
2023-05-13T07:40:26.183Z,67.47
2023-05-13T07:42:54.007Z,68.58
2023-05-13T07:45:22.511Z,69.94
2023-05-13T07:47:50.904Z,67.67
2023-05-13T07:50:18.999Z,69.97
2023-05-13T07:52:49.132Z,68.81
2023-05-13T07:55:17.524Z,66.65
2023-05-13T07:57:46.033Z,65.65
2023-05-13T08:00:16.351Z,65.39
2023-05-13T08:02:45.245Z,66.74
2023-05-13T08:05:13.856Z,64.56
2023-05-13T08:07:42.168Z,66.88
2023-05-13T08:10:11.003Z,66.90
2023-05-13T08:12:40.704Z,66.74
2023-05-13T08:15:09.570Z,71.25
2023-05-13T08:17:37.695Z,72.60
2023-05-13T08:20:06.765Z,70.68
2023-05-13T08:22:35.068Z,71.85
2023-05-13T08:25:03.732Z,72.77
2023-05-13T08:27:32.034Z,69.63
2023-05-13T08:30:00.107Z,71.74
2023-05-13T08:32:28.010Z,70.39
2023-05-13T08:34:56.634Z,68.30
2023-05-13T08:37:24.999Z,69.04
2023-05-13T08:39:53.296Z,70.29
2023-05-13T08:42:23.750Z,70.33
2023-05-13T08:44:53.547Z,69.03
2023-05-13T08:47:40.901Z,68.24
2023-05-13T08:50:10.598Z,70.65
2023-05-13T08:52:39.489Z,68.72
2023-05-13T08:55:09.254Z,67.59
2023-05-13T08:57:37.419Z,65.86
2023-05-13T09:00:06.515Z,65.31
2023-05-13T09:02:35.442Z,64.76
2023-05-13T09:05:07.589Z,64.97
2023-05-13T09:07:38.095Z,62.77
2023-05-13T09:10:08.243Z,63.98
2023-05-13T09:12:51.899Z,61.96
2023-05-13T09:15:27.642Z,63.31
2023-05-13T09:18:05.046Z,61.88
2023-05-13T09:20:34.623Z,60.79
2023-05-13T09:23:06.758Z,59.94
2023-05-13T09:25:35.296Z,61.13
2023-05-13T09:28:05.963Z,61.06
2023-05-13T09:30:43.348Z,57.12
2023-05-13T09:33:16.352Z,57.70
2023-05-13T09:35:54.887Z,58.42
2023-05-13T09:38:26.948Z,58.39
2023-05-13T09:41:03.611Z,58.71
2023-05-13T09:43:34.746Z,59.74
2023-05-13T09:46:05.306Z,57.47
2023-05-13T09:48:35.082Z,56.10
2023-05-13T09:51:04.163Z,54.98
2023-05-13T09:53:32.386Z,55.46
2023-05-13T09:56:01.807Z,54.33
2023-05-13T09:58:31.044Z,52.61
2023-05-13T10:00:59.837Z,52.23
2023-05-13T10:03:30.049Z,52.65
2023-05-13T10:06:02.304Z,51.76
2023-05-13T10:08:31.631Z,52.60
2023-05-13T10:11:00.646Z,52.73
2023-05-13T10:13:32.519Z,52.43
2023-05-13T10:16:00.696Z,52.20
2023-05-13T10:18:29.374Z,50.80
2023-05-13T10:20:57.657Z,49.37
2023-05-13T10:23:26.820Z,50.62
2023-05-13T10:25:56.626Z,48.03
2023-05-13T10:28:26.618Z,49.14
2023-05-13T10:30:54.785Z,48.96
2023-05-13T10:33:23.247Z,48.47
2023-05-13T10:35:56.992Z,48.44
2023-05-13T10:39:05.034Z,47.89
2023-05-13T10:42:16.884Z,47.97
2023-05-13T10:44:45.058Z,46.89
2023-05-13T10:47:13.621Z,48.06
2023-05-13T10:49:50.044Z,46.84
2023-05-13T10:52:19.130Z,47.06
2023-05-13T10:55:02.451Z,47.61
2023-05-13T10:57:38.616Z,47.24
2023-05-13T11:00:16.375Z,45.63
2023-05-13T11:02:45.007Z,44.99
2023-05-13T11:05:21.423Z,44.69
2023-05-13T11:07:57.051Z,45.53
2023-05-13T11:10:32.798Z,44.93
2023-05-13T11:13:15.313Z,42.20
2023-05-13T11:15:50.850Z,43.78
2023-05-13T11:18:20.819Z,42.43
2023-05-13T11:20:53.965Z,43.51
2023-05-13T11:23:22.593Z,43.41
2023-05-13T11:26:12.661Z,42.01
2023-05-13T11:29:04.187Z,41.86
2023-05-13T11:31:54.070Z,43.33
2023-05-13T11:34:22.849Z,42.68
2023-05-13T11:37:12.288Z,42.26
2023-05-13T11:39:41.733Z,41.14
2023-05-13T11:42:11.613Z,41.47
2023-05-13T11:44:47.181Z,41.23
2023-05-13T11:47:25.353Z,41.49
2023-05-13T11:49:53.574Z,41.80
2023-05-13T11:52:21.715Z,41.67
2023-05-13T11:54:57.917Z,41.95
2023-05-13T11:57:27.821Z,40.79
2023-05-13T12:00:00.378Z,40.97
2023-05-13T12:02:31.648Z,40.60
2023-05-13T12:05:05.470Z,41.38
2023-05-13T12:07:34.752Z,40.40
2023-05-13T12:10:05.368Z,42.21
2023-05-13T12:12:38.699Z,41.65
2023-05-13T12:15:16.041Z,40.80
2023-05-13T12:17:45.523Z,41.01
2023-05-13T12:20:20.866Z,40.36
2023-05-13T12:22:48.837Z,40.74
2023-05-13T12:25:39.413Z,41.11
2023-05-13T12:28:21.201Z,40.61
2023-05-13T12:31:06.025Z,39.94
2023-05-13T12:33:43.483Z,40.58
2023-05-13T12:36:28.195Z,40.99
2023-05-13T12:39:11.081Z,41.15
2023-05-13T12:41:42.933Z,41.39
2023-05-13T12:44:16.133Z,42.26
2023-05-13T12:46:57.603Z,43.77
2023-05-13T12:49:26.456Z,43.89
2023-05-13T12:51:56.913Z,43.11
2023-05-13T12:54:24.803Z,42.21
2023-05-13T12:56:52.926Z,42.21
2023-05-13T12:59:20.885Z,42.95
2023-05-13T13:01:50.633Z,43.97
2023-05-13T13:04:19.238Z,42.85
2023-05-13T13:06:47.536Z,44.21
2023-05-13T13:09:20.977Z,42.51
2023-05-13T13:11:50.049Z,45.27
2023-05-13T13:14:18.061Z,43.23
2023-05-13T13:16:46.955Z,44.28
2023-05-13T13:19:15.114Z,43.41
2023-05-13T13:21:43.071Z,42.36
2023-05-13T13:24:11.124Z,44.10
2023-05-13T13:26:39.247Z,43.96
2023-05-13T13:29:07.220Z,44.54
2023-05-13T13:31:35.417Z,43.38
2023-05-13T13:34:05.028Z,43.08
2023-05-13T13:36:33.005Z,44.45
2023-05-13T13:39:01.018Z,43.60
2023-05-13T13:41:29.313Z,43.05
2023-05-13T13:43:57.179Z,43.62
2023-05-13T13:46:25.187Z,44.05
2023-05-13T13:48:53.598Z,42.38
2023-05-13T13:51:22.077Z,42.28
2023-05-13T13:53:50.850Z,41.37
2023-05-13T13:56:20.167Z,44.42
2023-05-13T13:58:48.348Z,43.56
2023-05-13T14:01:16.592Z,44.10
2023-05-13T14:03:45.110Z,43.07
2023-05-13T14:06:13.147Z,42.57
2023-05-13T14:08:41.180Z,43.97
2023-05-13T14:11:09.412Z,45.11
2023-05-13T14:13:37.403Z,44.55
2023-05-13T14:16:06.622Z,43.37
2023-05-13T14:18:34.858Z,43.44
2023-05-13T14:21:04.094Z,43.30
2023-05-13T14:23:32.153Z,45.94
2023-05-13T14:26:01.942Z,43.25
2023-05-13T14:28:29.884Z,43.82
2023-05-13T14:30:57.786Z,44.68
2023-05-13T14:33:26.243Z,45.15
2023-05-13T14:35:54.254Z,43.65
2023-05-13T14:38:22.339Z,43.66
2023-05-13T14:40:50.644Z,43.63
2023-05-13T14:43:18.709Z,44.81
2023-05-13T14:45:46.822Z,44.31
2023-05-13T14:48:16.474Z,43.06
2023-05-13T14:50:46.459Z,43.17
2023-05-13T14:53:14.467Z,43.12
2023-05-13T14:55:42.459Z,44.26
2023-05-13T14:58:10.482Z,42.90
2023-05-13T15:00:38.965Z,43.03
2023-05-13T15:03:07.317Z,42.20
2023-05-13T15:05:35.464Z,42.80
2023-05-13T15:08:03.544Z,42.32
2023-05-13T15:10:31.871Z,42.86
2023-05-13T15:12:59.919Z,43.36
2023-05-13T15:15:27.918Z,43.76
2023-05-13T15:17:55.904Z,42.62
2023-05-13T15:20:24.092Z,43.41
2023-05-13T15:22:52.406Z,43.82
2023-05-13T15:25:20.654Z,44.74
2023-05-13T15:27:50.064Z,43.61
2023-05-13T15:30:18.089Z,43.62
2023-05-13T15:32:46.316Z,43.90
2023-05-13T15:35:17.356Z,43.57
2023-05-13T15:37:45.760Z,44.72
2023-05-13T15:40:14.675Z,43.89
2023-05-13T15:42:42.510Z,44.53
2023-05-13T15:45:10.721Z,45.56
2023-05-13T15:47:39.505Z,44.95
2023-05-13T15:50:09.687Z,44.84
2023-05-13T15:52:38.534Z,44.92
2023-05-13T15:55:07.122Z,45.83
2023-05-13T15:57:35.655Z,45.19
2023-05-13T16:00:04.456Z,45.52
2023-05-13T16:02:39.164Z,44.50
2023-05-13T16:05:08.311Z,44.28
2023-05-13T16:07:36.517Z,45.72
2023-05-13T16:10:05.516Z,46.48
2023-05-13T16:12:33.600Z,46.67
2023-05-13T16:15:01.896Z,45.81
2023-05-13T16:17:29.994Z,45.76
2023-05-13T16:19:57.980Z,46.34
2023-05-13T16:22:37.846Z,45.98
2023-05-13T16:25:08.625Z,46.31
2023-05-13T16:27:41.299Z,47.03
2023-05-13T16:30:10.627Z,47.29
2023-05-13T16:32:39.621Z,46.76
2023-05-13T16:35:12.159Z,46.87
2023-05-13T16:37:40.383Z,48.27
2023-05-13T16:40:09.342Z,48.18
2023-05-13T16:42:37.543Z,48.84
2023-05-13T16:45:07.650Z,47.68
2023-05-13T16:47:36.281Z,46.94
2023-05-13T16:50:05.085Z,48.55
2023-05-13T16:52:34.299Z,48.07
2023-05-13T16:55:02.585Z,48.92
2023-05-13T16:57:30.677Z,48.50
2023-05-13T16:59:59.516Z,48.52
2023-05-13T17:02:27.856Z,48.35
2023-05-13T17:04:56.647Z,48.64
2023-05-13T17:07:25.143Z,49.09
2023-05-13T17:09:53.308Z,48.37
2023-05-13T17:12:22.141Z,49.06
2023-05-13T17:14:50.246Z,50.18
2023-05-13T17:17:18.477Z,50.74
2023-05-13T17:19:46.499Z,51.07
2023-05-13T17:22:14.484Z,51.79
2023-05-13T17:24:43.340Z,52.27
2023-05-13T17:27:11.595Z,52.86
2023-05-13T17:29:39.680Z,52.84
2023-05-13T17:32:07.994Z,53.30
2023-05-13T17:34:36.508Z,53.52
2023-05-13T17:37:05.144Z,54.50
2023-05-13T17:39:33.562Z,54.79
2023-05-13T17:42:01.887Z,55.53
2023-05-13T17:44:30.171Z,58.12
2023-05-13T17:46:59.244Z,56.96
2023-05-13T17:49:27.920Z,57.31
2023-05-13T17:51:56.469Z,57.22
2023-05-13T17:54:24.880Z,59.07
2023-05-13T17:56:53.850Z,61.97
2023-05-13T17:59:22.637Z,62.47
2023-05-13T18:01:51.119Z,63.06
2023-05-13T18:04:19.433Z,64.47
2023-05-13T18:06:47.890Z,64.90
2023-05-13T18:09:16.590Z,65.85
2023-05-13T18:11:46.346Z,66.03
2023-05-13T18:14:15.351Z,66.47
2023-05-13T18:16:44.420Z,67.11
2023-05-13T18:19:13.106Z,67.93
2023-05-13T18:21:41.722Z,68.86
2023-05-13T18:24:09.957Z,69.32
2023-05-13T18:26:38.233Z,70.02
2023-05-13T18:29:07.033Z,70.92
2023-05-13T18:31:35.485Z,71.65
2023-05-13T18:34:04.141Z,72.74
2023-05-13T18:36:33.136Z,74.05
2023-05-13T18:39:01.517Z,75.32
2023-05-13T18:41:32.579Z,75.72
2023-05-13T18:44:01.692Z,78.93
2023-05-13T18:46:29.810Z,82.83
2023-05-13T18:49:04.688Z,81.27
2023-05-13T18:51:34.814Z,85.68
2023-05-13T18:54:05.667Z,87.35
2023-05-13T18:56:34.216Z,88.33
2023-05-13T18:59:02.798Z,88.09
2023-05-13T19:01:31.343Z,88.42
2023-05-13T19:04:00.853Z,88.82
2023-05-13T19:06:31.002Z,89.51
2023-05-13T19:08:59.038Z,90.88
2023-05-13T19:11:27.734Z,91.97
2023-05-13T19:13:58.371Z,93.64
2023-05-13T19:16:27.366Z,95.79
2023-05-13T19:18:55.622Z,100.00
2023-05-13T19:21:24.947Z,100.00
2023-05-13T19:23:53.797Z,100.00
2023-05-13T19:26:22.789Z,100.00
2023-05-13T19:28:51.580Z,100.00
2023-05-13T19:31:22.145Z,100.00
2023-05-13T19:33:50.352Z,100.00
2023-05-13T19:36:19.391Z,100.00
2023-05-13T19:38:50.144Z,100.00
2023-05-13T19:41:19.233Z,100.00
2023-05-13T19:43:47.853Z,100.00
2023-05-13T19:46:16.307Z,100.00
2023-05-13T19:48:44.457Z,100.00
2023-05-13T19:51:12.962Z,100.00
2023-05-13T19:53:44.827Z,100.00
2023-05-13T19:56:13.142Z,100.00
2023-05-13T19:58:41.316Z,100.00
2023-05-13T20:01:11.939Z,100.00
2023-05-13T20:03:40.264Z,100.00
2023-05-13T20:06:08.704Z,100.00
2023-05-13T20:08:38.539Z,100.00
2023-05-13T20:11:06.573Z,100.00
2023-05-13T20:13:34.846Z,100.00
2023-05-13T20:16:03.086Z,100.00
2023-05-13T20:18:31.759Z,100.00
2023-05-13T20:21:00.246Z,100.00
2023-05-13T20:23:28.760Z,100.00
2023-05-13T20:25:57.474Z,100.00
2023-05-13T20:28:25.801Z,100.00
2023-05-13T20:30:53.840Z,100.00
2023-05-13T20:33:22.040Z,100.00
2023-05-13T20:35:50.060Z,100.00
2023-05-13T20:38:18.301Z,100.00
2023-05-13T20:40:47.345Z,100.00
2023-05-13T20:43:17.235Z,100.00
2023-05-13T20:45:45.746Z,100.00
2023-05-13T20:48:13.773Z,100.00
2023-05-13T20:50:42.036Z,100.00
2023-05-13T20:53:10.061Z,100.00
2023-05-13T20:55:38.077Z,100.00
2023-05-13T20:58:06.303Z,100.00
2023-05-13T21:00:34.577Z,100.00
2023-05-13T21:03:02.984Z,100.00
2023-05-13T21:05:31.307Z,100.00
2023-05-13T21:07:59.631Z,100.00
2023-05-13T21:10:27.677Z,100.00
2023-05-13T21:12:56.378Z,100.00
2023-05-13T21:15:24.834Z,100.00
2023-05-13T21:17:53.142Z,100.00
2023-05-13T21:20:22.323Z,100.00
2023-05-13T21:22:50.773Z,100.00
2023-05-13T21:25:19.278Z,100.00
2023-05-13T21:27:48.673Z,100.00
2023-05-13T21:30:16.585Z,100.00
2023-05-13T21:32:44.805Z,100.00
2023-05-13T21:35:13.602Z,100.00
2023-05-13T21:37:41.600Z,100.00
2023-05-13T21:40:10.352Z,100.00
2023-05-13T21:42:38.515Z,100.00
2023-05-13T21:45:07.353Z,100.00
2023-05-13T21:47:35.430Z,100.00
2023-05-13T21:50:03.874Z,100.00
2023-05-13T21:52:31.755Z,100.00
2023-05-13T21:55:00.023Z,100.00
2023-05-13T21:57:28.728Z,100.00
2023-05-13T21:59:57.403Z,100.00
2023-05-13T22:02:25.612Z,100.00
2023-05-13T22:04:53.740Z,100.00
2023-05-13T22:07:21.790Z,100.00
2023-05-13T22:09:50.546Z,100.00
2023-05-13T22:12:18.614Z,100.00
2023-05-13T22:14:46.556Z,100.00
2023-05-13T22:17:14.822Z,100.00
2023-05-13T22:19:42.848Z,100.00
2023-05-13T22:22:10.983Z,100.00
2023-05-13T22:24:39.183Z,100.00
2023-05-13T22:27:07.179Z,100.00
2023-05-13T22:29:35.914Z,100.00
2023-05-13T22:32:04.153Z,100.00
2023-05-13T22:34:33.461Z,100.00
2023-05-13T22:37:01.940Z,100.00
2023-05-13T22:39:29.907Z,100.00
2023-05-13T22:41:59.188Z,100.00
2023-05-13T22:44:27.053Z,100.00
2023-05-13T22:46:55.178Z,100.00
2023-05-13T22:49:23.273Z,100.00
2023-05-13T22:51:51.284Z,100.00
2023-05-13T22:54:19.282Z,100.00
2023-05-13T22:56:47.141Z,100.00
2023-05-13T22:59:15.019Z,100.00
2023-05-13T23:01:43.173Z,100.00
2023-05-13T23:04:11.230Z,100.00
2023-05-13T23:06:39.276Z,100.00
2023-05-13T23:09:07.862Z,100.00
2023-05-13T23:11:38.935Z,100.00
2023-05-13T23:14:06.811Z,100.00
2023-05-13T23:16:36.280Z,100.00
2023-05-13T23:19:04.501Z,100.00
2023-05-13T23:21:32.754Z,100.00
2023-05-13T23:24:00.856Z,100.00
2023-05-13T23:26:28.722Z,100.00
2023-05-13T23:28:56.906Z,100.00
2023-05-13T23:31:25.065Z,100.00
2023-05-13T23:33:53.031Z,100.00
2023-05-13T23:36:20.907Z,100.00
2023-05-13T23:38:50.779Z,100.00
2023-05-13T23:41:18.719Z,100.00
2023-05-13T23:43:46.619Z,100.00
2023-05-13T23:46:14.573Z,100.00
2023-05-13T23:48:42.615Z,100.00
2023-05-13T23:51:10.636Z,100.00
2023-05-13T23:53:38.616Z,100.00
2023-05-13T23:56:06.829Z,100.00
2023-05-13T23:58:34.876Z,100.00
